Time;durP1;ratioP1;P1;durP2;ratioP2;P2;SDS_P1;SDS_P2;PMS_P1;PMS_P2;Temp;Humidity;BMP_temperature;BMP_pressure;BME280_temperature;BME280_humidity;BME280_pressure;Samples;Min_cycle;Max_cycle;Signal;HPM_P1;HPM_P2
2022/03/21 00:00:16;;;;;;;25.27;16.50;;;5.10;52.50;;;;;;2062344;28;20447;-77
2022/03/21 00:01:19;;;;;;;24.20;16.25;;;5.10;52.40;;;;;;2062202;28;20121;-77
2022/03/21 00:02:20;;;;;;;22.23;15.23;;;5.10;52.30;;;;;;2062994;28;20038;-77
2022/03/21 00:03:22;;;;;;;23.88;15.05;;;5.10;52.40;;;;;;2054523;28;20068;-76
2022/03/21 00:04:23;;;;;;;22.50;14.90;;;5.00;52.20;;;;;;2054905;28;20098;-76
2022/03/21 00:05:25;;;;;;;25.63;15.57;;;5.00;52.30;;;;;;2054110;28;20652;-76
2022/03/21 00:06:25;;;;;;;22.00;15.48;;;5.00;52.20;;;;;;2054338;28;20023;-75
2022/03/21 00:07:26;;;;;;;22.73;15.38;;;5.00;52.60;;;;;;2055103;28;20039;-75
2022/03/21 00:08:28;;;;;;;22.25;14.93;;;5.00;52.80;;;;;;2055193;28;20023;-74
2022/03/21 00:09:28;;;;;;;23.52;15.38;;;4.90;52.90;;;;;;2055078;28;20075;-75
2022/03/21 00:10:32;;;;;;;23.30;15.45;;;4.80;53.00;;;;;;2063919;28;20665;-74
2022/03/21 00:11:33;;;;;;;21.45;14.15;;;4.80;53.20;;;;;;2064176;28;20038;-74
2022/03/21 00:12:35;;;;;;;22.73;14.95;;;4.80;53.30;;;;;;2063933;28;20030;-75
2022/03/21 00:13:35;;;;;;;20.98;14.75;;;4.70;53.30;;;;;;2063289;28;20033;-74
2022/03/21 00:14:36;;;;;;;21.95;15.00;;;4.70;53.30;;;;;;2105798;28;20541;-75
2022/03/21 00:15:37;;;;;;;23.45;15.48;;;4.70;53.60;;;;;;2105974;28;20073;-75
2022/03/21 00:16:39;;;;;;;22.88;14.95;;;4.60;53.60;;;;;;2089433;28;20033;-75
2022/03/21 00:17:40;;;;;;;22.85;14.90;;;4.60;54.00;;;;;;2055364;28;20034;-75
2022/03/21 00:18:41;;;;;;;21.52;14.90;;;4.60;53.90;;;;;;2055292;28;20031;-74
2022/03/21 00:19:42;;;;;;;23.58;14.57;;;4.50;53.90;;;;;;2047508;28;20073;-75
2022/03/21 00:20:49;;;;;;;23.77;15.07;;;4.60;53.90;;;;;;2055009;28;20093;-75
2022/03/21 00:21:49;;;;;;;23.88;15.43;;;4.60;54.10;;;;;;2055420;28;20026;-74
2022/03/21 00:22:52;;;;;;;24.10;15.15;;;4.50;54.10;;;;;;2047411;29;20019;-75
2022/03/21 00:23:53;;;;;;;24.48;15.50;;;4.50;54.10;;;;;;2056979;28;20039;-75
2022/03/21 00:24:53;;;;;;;21.65;14.95;;;4.50;54.00;;;;;;2056129;28;20660;-75
2022/03/21 00:25:54;;;;;;;26.60;17.13;;;4.60;53.70;;;;;;2050209;28;20034;-74
2022/03/21 00:26:57;;;;;;;23.05;15.40;;;4.60;53.50;;;;;;2058844;28;20045;-74
2022/03/21 00:28:09;;;;;;;23.95;15.88;;;4.60;53.50;;;;;;2058594;28;20019;-74
2022/03/21 00:29:10;;;;;;;24.48;15.88;;;4.60;53.50;;;;;;2057762;28;20027;-75
2022/03/21 00:30:11;;;;;;;23.50;15.27;;;4.70;53.60;;;;;;2064530;28;20026;-75
2022/03/21 00:31:13;;;;;;;23.60;15.55;;;4.70;53.50;;;;;;2055235;28;20037;-75
2022/03/21 00:32:14;;;;;;;22.10;15.70;;;4.70;53.50;;;;;;2055189;28;20038;-75
2022/03/21 00:33:15;;;;;;;23.20;15.38;;;4.60;53.40;;;;;;2055244;28;20114;-75
2022/03/21 00:34:15;;;;;;;22.52;15.00;;;4.60;53.40;;;;;;2047377;28;20073;-75
2022/03/21 00:35:16;;;;;;;21.52;15.43;;;4.60;53.50;;;;;;2054741;28;20027;-75
2022/03/21 00:36:17;;;;;;;28.05;16.05;;;4.60;53.50;;;;;;2055278;28;20502;-75
2022/03/21 00:37:18;;;;;;;24.00;15.43;;;4.60;53.40;;;;;;2105747;28;20042;-75
2022/03/21 00:38:20;;;;;;;23.90;15.15;;;4.60;53.30;;;;;;2081960;28;20029;-75
2022/03/21 00:39:20;;;;;;;23.23;15.45;;;4.60;53.20;;;;;;2048094;28;20703;-75
2022/03/21 00:40:21;;;;;;;22.67;14.90;;;4.50;53.40;;;;;;2063593;28;20026;-75
2022/03/21 00:41:22;;;;;;;22.33;14.90;;;4.50;53.40;;;;;;2054678;28;20034;-74
2022/03/21 00:42:22;;;;;;;22.90;14.93;;;4.50;53.70;;;;;;2055059;28;20663;-74
2022/03/21 00:43:24;;;;;;;22.92;15.02;;;4.40;53.80;;;;;;2054829;28;20393;-75
2022/03/21 00:44:25;;;;;;;23.23;15.27;;;4.40;54.30;;;;;;2054886;28;20035;-76
2022/03/21 00:45:25;;;;;;;19.48;13.75;;;4.30;53.70;;;;;;2063402;28;20101;-75
2022/03/21 00:46:26;;;;;;;20.42;13.75;;;4.30;53.80;;;;;;2054762;28;20030;-75
2022/03/21 00:47:27;;;;;;;22.08;14.40;;;4.30;53.80;;;;;;2088612;28;20546;-74
2022/03/21 00:48:29;;;;;;;25.48;15.13;;;4.20;54.00;;;;;;2089021;28;20009;-73
2022/03/21 00:49:30;;;;;;;21.88;14.50;;;4.20;54.10;;;;;;2055475;28;20696;-75
2022/03/21 00:50:31;;;;;;;22.02;15.27;;;4.20;54.10;;;;;;2064890;28;20056;-79
2022/03/21 00:51:31;;;;;;;23.45;15.75;;;4.10;54.20;;;;;;2056285;28;20080;-79
2022/03/21 00:52:37;;;;;;;21.00;14.30;;;4.10;54.30;;;;;;2056325;28;20042;-79
2022/03/21 00:53:38;;;;;;;22.67;14.82;;;4.10;54.40;;;;;;2048704;28;20094;-78
2022/03/21 00:54:39;;;;;;;22.15;14.90;;;4.10;54.40;;;;;;2047476;28;20192;-77
2022/03/21 00:55:39;;;;;;;22.05;14.55;;;4.10;54.50;;;;;;2048010;28;20035;-76
2022/03/21 00:56:40;;;;;;;22.60;14.32;;;4.10;54.50;;;;;;2056475;28;20039;-77
2022/03/21 00:57:45;;;;;;;21.23;14.65;;;4.00;54.60;;;;;;2055919;28;20057;-77
2022/03/21 00:58:46;;;;;;;22.20;14.30;;;4.00;54.60;;;;;;2056955;28;20141;-76
2022/03/21 00:59:46;;;;;;;20.48;14.05;;;4.00;54.80;;;;;;2064373;28;20027;-77
2022/03/21 01:00:47;;;;;;;22.25;14.60;;;4.00;55.00;;;;;;2055835;28;20026;-77
2022/03/21 01:01:48;;;;;;;22.30;15.13;;;3.90;55.00;;;;;;2040040;28;20062;-76
2022/03/21 01:02:48;;;;;;;21.95;14.02;;;3.90;55.00;;;;;;2031785;29;20039;-78
2022/03/21 01:03:49;;;;;;;20.77;14.27;;;3.90;55.20;;;;;;2048192;29;20038;-78
2022/03/21 01:04:50;;;;;;;20.55;14.00;;;3.90;55.40;;;;;;2056081;28;20060;-77
2022/03/21 01:05:50;;;;;;;21.50;14.32;;;3.80;55.70;;;;;;2048293;29;20023;-77
2022/03/21 01:06:51;;;;;;;20.65;13.93;;;3.80;56.00;;;;;;2056810;28;20043;-77
2022/03/21 01:07:52;;;;;;;21.42;13.98;;;3.80;56.10;;;;;;2065714;28;20389;-78
2022/03/21 01:08:53;;;;;;;19.70;13.48;;;3.70;56.10;;;;;;2066835;28;20035;-77
2022/03/21 01:09:54;;;;;;;21.90;13.93;;;3.70;56.30;;;;;;2062348;28;20054;-76
2022/03/21 01:10:54;;;;;;;23.02;14.38;;;3.60;56.20;;;;;;2055812;28;20046;-76
2022/03/21 01:11:55;;;;;;;23.85;14.15;;;3.60;56.30;;;;;;2064249;28;20577;-77
2022/03/21 01:12:56;;;;;;;21.30;14.60;;;3.60;56.40;;;;;;2063963;28;20031;-76
2022/03/21 01:13:57;;;;;;;21.83;14.40;;;3.60;56.30;;;;;;2064447;28;20068;-76
2022/03/21 01:14:58;;;;;;;21.80;13.95;;;3.60;56.40;;;;;;2072705;28;20049;-77
2022/03/21 01:15:59;;;;;;;22.50;14.65;;;3.60;56.50;;;;;;2073290;28;20018;-77
2022/03/21 01:16:59;;;;;;;22.52;14.73;;;3.50;56.50;;;;;;2065112;28;20023;-76
2022/03/21 01:18:00;;;;;;;21.02;14.02;;;3.50;56.50;;;;;;2064699;28;20028;-77
2022/03/21 01:19:01;;;;;;;21.10;14.02;;;3.50;56.60;;;;;;2072776;28;20019;-75
2022/03/21 01:20:04;;;;;;;21.42;14.38;;;3.50;56.60;;;;;;2064640;28;20030;-77
2022/03/21 01:21:04;;;;;;;21.90;14.30;;;3.50;56.60;;;;;;2064186;28;20035;-76
2022/03/21 01:22:06;;;;;;;20.98;14.05;;;3.50;56.80;;;;;;2064475;28;20019;-77
2022/03/21 01:23:06;;;;;;;21.27;14.27;;;3.40;56.80;;;;;;2072145;28;20046;-76
2022/03/21 01:24:07;;;;;;;21.38;14.05;;;3.40;56.90;;;;;;2072430;28;20074;-76
2022/03/21 01:25:08;;;;;;;21.50;13.63;;;3.30;57.00;;;;;;2073599;28;20046;-76
2022/03/21 01:26:09;;;;;;;21.67;13.93;;;3.30;57.10;;;;;;2064936;28;20027;-76
2022/03/21 01:27:09;;;;;;;21.50;14.15;;;3.30;57.30;;;;;;2064787;28;20035;-76
2022/03/21 01:28:10;;;;;;;21.50;13.75;;;3.30;57.50;;;;;;2064675;28;20030;-76
2022/03/21 01:29:11;;;;;;;22.35;14.63;;;3.20;57.60;;;;;;2072713;28;20054;-78
2022/03/21 01:30:14;;;;;;;20.35;14.00;;;3.20;57.60;;;;;;2064174;28;20109;-77
2022/03/21 01:31:15;;;;;;;21.95;14.35;;;3.20;57.50;;;;;;2052985;28;20418;-76
2022/03/21 01:32:16;;;;;;;23.08;14.77;;;3.20;57.60;;;;;;2057134;28;20030;-76
2022/03/21 01:33:16;;;;;;;20.83;13.73;;;3.20;57.60;;;;;;2065761;28;20034;-77
2022/03/21 01:34:17;;;;;;;22.17;14.27;;;3.20;57.70;;;;;;2066523;28;20045;-78
2022/03/21 01:35:18;;;;;;;22.63;14.50;;;3.20;57.70;;;;;;2113929;28;20044;-76
2022/03/21 01:36:19;;;;;;;22.13;13.70;;;3.10;57.60;;;;;;2071422;28;20038;-78
2022/03/21 01:37:19;;;;;;;23.55;14.55;;;3.10;57.60;;;;;;2063509;28;20031;-77
2022/03/21 01:38:20;;;;;;;22.10;14.35;;;3.10;57.60;;;;;;2062906;28;20104;-77
2022/03/21 01:39:21;;;;;;;19.95;13.75;;;3.10;57.60;;;;;;2064456;28;20040;-76
2022/03/21 01:40:21;;;;;;;21.42;14.15;;;3.10;57.80;;;;;;2064135;28;20048;-77
2022/03/21 01:41:22;;;;;;;21.38;14.23;;;3.10;57.70;;;;;;2047395;29;20058;-77
2022/03/21 01:42:23;;;;;;;20.35;13.98;;;3.10;57.80;;;;;;2047569;29;20039;-76
2022/03/21 01:43:23;;;;;;;22.15;13.65;;;3.10;57.90;;;;;;2055582;28;20037;-78
2022/03/21 01:44:24;;;;;;;20.88;14.00;;;3.00;58.10;;;;;;2055107;28;20057;-77
2022/03/21 01:45:28;;;;;;;21.40;14.10;;;3.00;58.30;;;;;;2063784;28;20031;-77
2022/03/21 01:46:29;;;;;;;21.55;13.90;;;3.00;58.50;;;;;;2064353;28;20062;-78
2022/03/21 01:47:33;;;;;;;22.15;14.35;;;3.00;58.40;;;;;;2064287;28;20077;-78
2022/03/21 01:48:34;;;;;;;23.55;14.20;;;3.00;58.30;;;;;;2055617;28;20027;-78
2022/03/21 01:49:35;;;;;;;19.33;13.45;;;3.00;58.40;;;;;;2055282;28;20054;-78
2022/03/21 01:50:37;;;;;;;20.65;13.38;;;3.00;58.50;;;;;;2055195;28;20035;-79
2022/03/21 01:51:39;;;;;;;20.75;13.93;;;3.00;58.60;;;;;;2039281;29;20027;-78
2022/03/21 01:52:42;;;;;;;21.33;13.25;;;2.90;58.60;;;;;;2047581;28;20035;-77
2022/03/21 01:56:23;;;;;;;18.95;12.60;;;2.80;59.00;;;;;;2059608;28;20034;-79
2022/03/21 01:57:24;;;;;;;18.73;12.77;;;2.80;59.20;;;;;;2065128;28;20022;-78
2022/03/21 01:58:25;;;;;;;19.90;12.85;;;2.70;59.40;;;;;;2064829;28;20709;-78
2022/03/21 01:59:26;;;;;;;19.20;12.90;;;2.70;59.50;;;;;;2064898;28;20030;-78
2022/03/21 02:00:27;;;;;;;21.25;13.32;;;2.70;59.50;;;;;;2056332;28;20087;-78
2022/03/21 02:01:28;;;;;;;19.35;12.63;;;2.70;59.60;;;;;;2056561;28;20100;-78
2022/03/21 02:02:28;;;;;;;18.05;12.65;;;2.70;59.60;;;;;;2065386;28;20053;-78
2022/03/21 02:03:29;;;;;;;17.83;11.98;;;2.70;59.60;;;;;;2056125;28;20058;-78
2022/03/21 02:04:30;;;;;;;18.00;12.25;;;2.60;59.60;;;;;;2097526;28;20566;-78
2022/03/21 02:05:33;;;;;;;19.88;13.05;;;2.70;59.70;;;;;;2089294;28;20048;-77
2022/03/21 02:06:34;;;;;;;19.10;12.88;;;2.70;59.60;;;;;;2055587;28;20091;-78
2022/03/21 02:07:35;;;;;;;17.73;12.60;;;2.70;59.70;;;;;;2063655;28;20026;-79
2022/03/21 02:08:36;;;;;;;19.40;12.55;;;2.60;59.80;;;;;;2055497;28;20031;-77
2022/03/21 02:09:37;;;;;;;19.20;12.73;;;2.60;59.80;;;;;;2055125;28;20068;-77
2022/03/21 02:10:38;;;;;;;20.90;12.90;;;2.60;60.00;;;;;;2064602;28;20027;-77
2022/03/21 02:11:39;;;;;;;20.02;12.98;;;2.60;60.20;;;;;;2065355;28;20810;-77
2022/03/21 02:12:40;;;;;;;21.85;13.40;;;2.60;60.20;;;;;;2057653;28;20035;-77
2022/03/21 02:13:41;;;;;;;22.88;14.25;;;2.60;60.20;;;;;;2040363;28;20059;-76
2022/03/21 02:14:42;;;;;;;23.27;14.48;;;2.60;60.30;;;;;;2048273;28;20070;-77
2022/03/21 02:15:43;;;;;;;21.48;13.50;;;2.60;60.30;;;;;;2063593;28;20538;-76
2022/03/21 02:16:43;;;;;;;24.02;14.35;;;2.60;60.70;;;;;;2064104;28;20027;-77
2022/03/21 02:17:46;;;;;;;23.35;13.80;;;2.60;60.80;;;;;;2064330;28;20110;-77
2022/03/21 02:18:48;;;;;;;23.73;13.73;;;2.60;61.00;;;;;;2055735;28;20072;-77
2022/03/21 02:19:50;;;;;;;21.50;13.73;;;2.60;61.10;;;;;;2055360;28;20038;-77
2022/03/21 02:20:53;;;;;;;22.95;13.93;;;2.60;61.10;;;;;;2063952;28;20500;-77
2022/03/21 02:22:07;;;;;;;24.48;14.35;;;2.50;61.00;;;;;;2064129;28;20030;-77
2022/03/21 02:23:16;;;;;;;20.90;13.60;;;2.50;60.90;;;;;;2054786;28;20132;-77
2022/03/21 02:24:36;;;;;;;23.00;13.75;;;2.50;61.80;;;;;;2048153;28;20054;-77
2022/03/21 02:25:43;;;;;;;24.45;13.98;;;2.50;61.50;;;;;;2057665;28;20038;-76
2022/03/21 02:26:45;;;;;;;23.75;14.15;;;2.50;61.20;;;;;;2054610;28;20607;-77
2022/03/21 02:27:48;;;;;;;20.05;12.68;;;2.40;61.00;;;;;;2054923;28;20035;-77
2022/03/21 02:28:50;;;;;;;26.40;14.77;;;2.40;61.00;;;;;;2062940;28;20119;-77
2022/03/21 02:29:52;;;;;;;24.95;14.80;;;2.50;60.80;;;;;;2054235;28;20703;-76
2022/03/21 02:30:55;;;;;;;24.85;15.27;;;2.50;60.40;;;;;;2054649;28;20080;-76
2022/03/21 02:31:56;;;;;;;27.60;15.32;;;2.50;60.10;;;;;;2063632;28;20026;-77
2022/03/21 02:33:00;;;;;;;27.67;15.65;;;2.50;59.80;;;;;;2063620;28;20037;-77
2022/03/21 02:34:01;;;;;;;25.55;15.32;;;2.60;59.60;;;;;;2063903;28;20087;-77
2022/03/21 02:35:03;;;;;;;24.98;15.02;;;2.60;60.40;;;;;;2054607;28;20529;-77
2022/03/21 02:36:04;;;;;;;23.02;14.18;;;2.60;59.80;;;;;;2088929;28;20072;-77
2022/03/21 02:37:07;;;;;;;24.50;14.60;;;2.60;60.10;;;;;;2089154;28;20032;-77
2022/03/21 02:38:10;;;;;;;23.60;14.10;;;2.50;60.40;;;;;;2055359;28;20054;-77
2022/03/21 02:39:12;;;;;;;22.63;13.82;;;2.50;60.50;;;;;;2054722;28;20042;-77
2022/03/21 02:40:13;;;;;;;23.23;14.02;;;2.50;60.50;;;;;;2055085;28;20550;-77
2022/03/21 02:41:17;;;;;;;21.67;13.38;;;2.50;60.70;;;;;;2055664;28;20080;-79
2022/03/21 02:42:17;;;;;;;22.05;13.95;;;2.40;60.80;;;;;;2055647;28;20038;-77
2022/03/21 02:43:18;;;;;;;21.80;13.68;;;2.40;61.00;;;;;;2063860;28;20121;-77
2022/03/21 02:44:19;;;;;;;21.80;13.73;;;2.40;61.10;;;;;;2063914;28;20120;-77
2022/03/21 02:45:20;;;;;;;21.67;14.32;;;2.30;61.20;;;;;;2054938;28;20061;-76
2022/03/21 02:46:21;;;;;;;22.33;14.02;;;2.40;61.40;;;;;;2047312;28;20023;-77
2022/03/21 02:47:22;;;;;;;21.92;14.23;;;2.30;61.50;;;;;;2055439;28;20018;-77
2022/03/21 02:48:23;;;;;;;22.75;13.15;;;2.30;61.50;;;;;;2063623;28;20030;-77
2022/03/21 02:49:23;;;;;;;20.98;13.38;;;2.30;61.50;;;;;;2054987;28;20150;-77
2022/03/21 02:50:43;;;;;;;20.63;13.32;;;2.20;61.70;;;;;;2047016;29;20102;-77
2022/03/21 02:51:44;;;;;;;23.70;13.95;;;2.20;61.70;;;;;;2055384;28;20104;-77
2022/03/21 02:52:49;;;;;;;22.70;13.43;;;2.20;62.00;;;;;;2055488;28;20027;-77
2022/03/21 02:53:50;;;;;;;22.30;13.55;;;2.20;62.10;;;;;;2105891;28;20024;-77
2022/03/21 02:54:51;;;;;;;20.38;13.02;;;2.20;62.10;;;;;;2105628;28;20071;-77
2022/03/21 02:55:54;;;;;;;21.83;13.07;;;2.10;61.90;;;;;;2105918;28;20039;-78
2022/03/21 02:56:55;;;;;;;22.15;13.20;;;2.10;62.00;;;;;;2088089;28;20029;-77
2022/03/21 02:57:56;;;;;;;24.00;13.43;;;2.10;62.10;;;;;;2054984;28;20046;-77
2022/03/21 02:58:57;;;;;;;20.65;12.82;;;2.10;62.10;;;;;;2063611;28;20038;-78
2022/03/21 02:59:57;;;;;;;23.83;13.10;;;2.10;62.20;;;;;;2063690;28;20443;-78
2022/03/21 03:01:12;;;;;;;21.98;12.90;;;2.10;62.10;;;;;;2063678;28;20084;-78
2022/03/21 03:02:13;;;;;;;22.15;12.68;;;2.10;62.50;;;;;;2063905;28;20031;-78
2022/03/21 03:03:13;;;;;;;22.35;13.43;;;2.10;62.70;;;;;;2054989;28;20035;-78
2022/03/21 03:04:14;;;;;;;20.85;13.00;;;2.00;62.80;;;;;;2088592;28;20104;-76
2022/03/21 03:05:15;;;;;;;24.83;13.95;;;2.10;62.90;;;;;;2087875;28;20025;-76
2022/03/21 03:06:15;;;;;;;21.15;13.80;;;2.10;62.90;;;;;;2046462;28;20027;-76
2022/03/21 03:07:16;;;;;;;24.30;14.38;;;2.00;62.90;;;;;;2046456;29;20158;-77
2022/03/21 03:08:17;;;;;;;22.85;14.10;;;2.00;62.70;;;;;;2054530;28;20031;-77
2022/03/21 03:09:17;;;;;;;22.23;14.25;;;2.10;62.50;;;;;;2054121;28;20038;-76
2022/03/21 03:10:18;;;;;;;21.75;14.05;;;2.10;62.20;;;;;;2054023;28;20054;-77
2022/03/21 03:11:18;;;;;;;20.65;14.15;;;2.10;62.00;;;;;;2046424;28;20508;-77
2022/03/21 03:12:19;;;;;;;23.35;14.68;;;2.10;61.90;;;;;;2038625;29;20035;-77
2022/03/21 03:13:20;;;;;;;24.23;15.00;;;2.10;61.80;;;;;;2054475;28;20497;-77
2022/03/21 03:14:24;;;;;;;22.58;14.20;;;2.10;61.60;;;;;;2054963;28;20050;-77
2022/03/21 03:15:24;;;;;;;24.00;14.50;;;2.10;61.50;;;;;;2048119;28;20122;-77
2022/03/21 03:16:25;;;;;;;25.50;15.52;;;2.10;61.50;;;;;;2048222;29;20023;-77
2022/03/21 03:17:26;;;;;;;25.17;15.02;;;2.10;61.40;;;;;;2064849;28;20027;-77
2022/03/21 03:18:27;;;;;;;27.63;15.35;;;2.10;61.30;;;;;;2056006;28;20031;-77
2022/03/21 03:19:28;;;;;;;39.25;17.50;;;2.10;61.30;;;;;;2056056;28;20030;-78
2022/03/21 03:20:28;;;;;;;37.13;17.50;;;2.10;61.30;;;;;;2056311;28;20065;-77
2022/03/21 03:21:35;;;;;;;37.15;16.80;;;2.20;61.40;;;;;;2055073;28;20410;-77
2022/03/21 03:22:37;;;;;;;34.28;17.77;;;2.20;61.20;;;;;;2054636;28;20513;-77
2022/03/21 03:23:40;;;;;;;37.92;17.90;;;2.20;61.30;;;;;;2054540;28;20022;-77
2022/03/21 03:24:41;;;;;;;34.33;17.60;;;2.20;61.30;;;;;;2054817;28;20047;-76
2022/03/21 03:25:42;;;;;;;34.85;16.92;;;2.20;62.10;;;;;;2054769;28;20137;-76
2022/03/21 03:26:42;;;;;;;33.55;16.58;;;2.20;61.20;;;;;;2046647;29;20841;-77
2022/03/21 03:27:43;;;;;;;31.75;16.60;;;2.20;61.10;;;;;;2038888;29;20038;-76
2022/03/21 03:28:46;;;;;;;32.50;16.30;;;2.10;61.10;;;;;;2047222;29;20047;-77
2022/03/21 03:29:47;;;;;;;32.70;16.35;;;2.10;61.30;;;;;;2064221;28;20041;-77
2022/03/21 03:30:48;;;;;;;31.20;16.63;;;2.10;61.60;;;;;;2063307;28;20034;-76
2022/03/21 03:31:49;;;;;;;27.50;15.13;;;2.00;61.90;;;;;;2062962;28;20053;-78
2022/03/21 03:32:50;;;;;;;27.67;15.18;;;2.00;62.50;;;;;;2054563;28;20024;-78
2022/03/21 03:33:52;;;;;;;25.33;15.05;;;1.90;62.80;;;;;;2049108;28;20031;-78
2022/03/21 03:34:52;;;;;;;25.83;14.60;;;1.90;63.20;;;;;;2055461;28;20430;-78
2022/03/21 03:35:54;;;;;;;27.40;15.15;;;1.90;63.50;;;;;;2056145;28;20114;-78
2022/03/21 03:36:55;;;;;;;27.02;14.85;;;1.90;63.50;;;;;;2055620;28;20027;-78
2022/03/21 03:37:56;;;;;;;28.23;14.98;;;1.80;63.40;;;;;;2047715;28;20031;-76
2022/03/21 03:38:57;;;;;;;26.67;15.00;;;1.80;63.60;;;;;;2054547;28;20423;-78
2022/03/21 03:39:58;;;;;;;28.65;14.63;;;1.80;63.70;;;;;;2054396;28;20076;-76
2022/03/21 03:41:03;;;;;;;23.88;13.98;;;1.70;63.60;;;;;;2039779;28;20046;-77
2022/03/21 03:42:04;;;;;;;26.27;14.27;;;1.70;63.60;;;;;;2048496;28;20110;-78
2022/03/21 03:43:04;;;;;;;23.15;14.00;;;1.70;63.80;;;;;;2047992;28;20032;-78
2022/03/21 03:44:05;;;;;;;23.58;13.65;;;1.60;64.00;;;;;;2048697;28;20535;-78
2022/03/21 03:45:06;;;;;;;20.15;12.82;;;1.60;64.10;;;;;;2055909;28;20918;-78
2022/03/21 03:46:07;;;;;;;23.45;13.45;;;1.60;64.10;;;;;;2054826;28;20081;-75
2022/03/21 03:47:08;;;;;;;23.02;13.75;;;1.60;64.30;;;;;;2054579;28;20363;-76
2022/03/21 03:48:09;;;;;;;24.70;14.35;;;1.60;64.60;;;;;;2061877;28;20047;-77
2022/03/21 03:49:10;;;;;;;21.17;13.63;;;1.50;64.90;;;;;;2062853;28;20027;-77
2022/03/21 03:50:11;;;;;;;21.92;13.93;;;1.50;65.00;;;;;;2053729;28;20524;-76
2022/03/21 03:51:12;;;;;;;21.95;13.63;;;1.50;65.90;;;;;;2038112;28;20077;-76
2022/03/21 03:52:12;;;;;;;20.75;13.25;;;1.50;65.30;;;;;;2038427;28;20024;-76
2022/03/21 03:53:14;;;;;;;20.20;12.98;;;1.50;65.70;;;;;;2045973;29;20093;-76
2022/03/21 03:54:14;;;;;;;22.38;13.18;;;1.50;66.00;;;;;;2054276;28;20041;-75
2022/03/21 03:55:17;;;;;;;22.83;13.18;;;1.50;66.20;;;;;;2054257;28;20030;-76
2022/03/21 03:56:17;;;;;;;21.23;13.60;;;1.50;66.50;;;;;;2046277;28;20038;-76
2022/03/21 03:57:20;;;;;;;22.65;13.40;;;1.50;66.70;;;;;;2054597;28;20107;-77
2022/03/21 03:58:21;;;;;;;22.55;12.93;;;1.50;67.20;;;;;;2055045;28;20122;-76
2022/03/21 03:59:21;;;;;;;21.60;13.18;;;1.50;67.60;;;;;;2054802;28;20102;-77
2022/03/21 04:00:22;;;;;;;22.13;13.95;;;1.50;67.80;;;;;;2055971;28;20030;-76
2022/03/21 04:01:22;;;;;;;21.85;13.27;;;1.50;67.50;;;;;;2048764;29;20149;-77
2022/03/21 04:02:23;;;;;;;21.67;13.68;;;1.50;67.40;;;;;;2049653;29;20024;-77
2022/03/21 04:04:43;;;;;;;20.88;13.00;;;1.40;67.40;;;;;;2060687;28;20061;-77
2022/03/21 04:05:44;;;;;;;23.00;13.18;;;1.40;67.50;;;;;;2065563;28;20101;-77
2022/03/21 04:06:44;;;;;;;24.55;13.77;;;1.40;67.50;;;;;;2063605;28;20026;-77
2022/03/21 04:07:45;;;;;;;24.13;14.38;;;1.40;67.40;;;;;;2063396;28;20050;-77
2022/03/21 04:08:47;;;;;;;23.63;13.95;;;1.40;67.30;;;;;;2063000;28;20026;-77
2022/03/21 04:09:48;;;;;;;21.95;13.57;;;1.40;67.30;;;;;;2046245;28;20032;-77
2022/03/21 04:10:49;;;;;;;21.60;13.15;;;1.40;67.40;;;;;;2046175;28;20027;-77
2022/03/21 04:11:49;;;;;;;21.85;13.48;;;1.50;67.80;;;;;;2054282;28;20077;-77
2022/03/21 04:12:53;;;;;;;21.50;13.18;;;1.40;68.00;;;;;;2062655;28;20109;-77
2022/03/21 04:13:54;;;;;;;23.95;13.65;;;1.40;68.00;;;;;;2062642;28;20064;-77
2022/03/21 04:14:54;;;;;;;21.48;12.73;;;1.40;67.70;;;;;;2062375;28;20030;-77
2022/03/21 04:15:55;;;;;;;22.77;13.13;;;1.50;68.00;;;;;;2062856;28;20477;-77
2022/03/21 04:16:55;;;;;;;21.90;13.20;;;1.50;68.10;;;;;;2062710;28;20086;-77
2022/03/21 04:18:04;;;;;;;21.02;12.65;;;1.50;68.00;;;;;;2062463;28;20030;-77
2022/03/21 04:19:05;;;;;;;19.45;12.35;;;1.40;67.90;;;;;;2053715;28;20037;-77
2022/03/21 04:20:07;;;;;;;18.10;12.15;;;1.50;67.80;;;;;;2053861;28;20441;-77
2022/03/21 04:21:08;;;;;;;17.48;11.55;;;1.50;67.70;;;;;;2062881;28;20037;-78
2022/03/21 04:22:08;;;;;;;19.95;12.48;;;1.40;67.70;;;;;;2062771;28;20038;-77
2022/03/21 04:23:11;;;;;;;19.17;12.02;;;1.40;67.30;;;;;;2062814;28;20045;-77
2022/03/21 04:24:12;;;;;;;18.73;12.40;;;1.40;67.00;;;;;;2054315;28;20124;-77
2022/03/21 04:25:13;;;;;;;18.83;12.38;;;1.40;66.90;;;;;;2055623;28;20019;-77
2022/03/21 04:26:14;;;;;;;19.33;12.13;;;1.50;67.50;;;;;;2048079;29;20023;-77
2022/03/21 04:27:15;;;;;;;18.70;11.85;;;1.40;67.50;;;;;;2048232;29;20097;-77
2022/03/21 04:28:16;;;;;;;17.88;11.88;;;1.40;67.60;;;;;;2055642;28;20137;-77
2022/03/21 04:29:17;;;;;;;20.13;12.60;;;1.40;67.70;;;;;;2055757;28;20019;-76
2022/03/21 04:30:18;;;;;;;19.17;12.15;;;1.40;67.50;;;;;;2064850;28;20026;-77
2022/03/21 04:31:19;;;;;;;18.77;12.30;;;1.40;67.50;;;;;;2056945;28;20039;-77
2022/03/21 04:32:19;;;;;;;18.63;12.20;;;1.40;67.30;;;;;;2056622;28;20026;-77
2022/03/21 04:33:20;;;;;;;19.63;12.10;;;1.50;67.50;;;;;;2048781;28;20237;-77
2022/03/21 04:34:21;;;;;;;19.10;12.23;;;1.40;68.00;;;;;;2048584;28;20085;-77
2022/03/21 04:35:21;;;;;;;19.08;12.63;;;1.40;68.20;;;;;;2049175;28;20035;-77
2022/03/21 04:36:22;;;;;;;19.77;12.57;;;1.40;68.60;;;;;;2058166;28;20062;-77
2022/03/21 04:37:23;;;;;;;18.30;12.15;;;1.40;68.40;;;;;;2058342;28;20031;-76
2022/03/21 04:38:24;;;;;;;17.77;11.63;;;1.40;68.80;;;;;;2058610;28;20576;-76
2022/03/21 04:39:24;;;;;;;19.55;12.60;;;1.30;69.00;;;;;;2058262;28;20082;-77
2022/03/21 04:40:25;;;;;;;19.55;12.77;;;1.30;69.30;;;;;;2058459;28;20052;-77
2022/03/21 04:41:26;;;;;;;18.50;12.40;;;1.30;69.20;;;;;;2062763;28;20015;-76
2022/03/21 04:42:26;;;;;;;18.90;12.68;;;1.30;70.20;;;;;;2063648;28;20031;-77
2022/03/21 04:43:27;;;;;;;18.05;11.95;;;1.30;69.50;;;;;;2053038;29;20065;-77
2022/03/21 04:44:28;;;;;;;18.67;11.95;;;1.30;69.90;;;;;;2048925;28;20035;-77
2022/03/21 04:45:28;;;;;;;18.88;12.07;;;1.30;70.40;;;;;;2054935;28;20030;-77
2022/03/21 04:46:29;;;;;;;19.23;12.48;;;1.30;70.80;;;;;;2055297;28;20065;-77
2022/03/21 04:47:31;;;;;;;19.35;12.43;;;1.20;71.10;;;;;;2063461;28;20091;-77
2022/03/21 04:48:32;;;;;;;19.08;12.25;;;1.20;71.80;;;;;;2063364;28;20076;-77
2022/03/21 04:49:33;;;;;;;19.80;12.27;;;1.20;72.20;;;;;;2063515;28;20080;-77
2022/03/21 04:50:34;;;;;;;19.33;12.77;;;1.20;72.70;;;;;;2063492;28;20064;-77
2022/03/21 04:51:34;;;;;;;20.50;12.70;;;1.20;73.00;;;;;;2062569;28;20026;-77
2022/03/21 04:52:35;;;;;;;19.90;12.55;;;1.20;73.30;;;;;;2055481;28;20084;-77
2022/03/21 04:53:36;;;;;;;21.70;12.48;;;1.20;73.00;;;;;;2056617;28;20039;-77
2022/03/21 04:54:37;;;;;;;17.67;11.88;;;1.20;72.80;;;;;;2048322;28;20043;-76
2022/03/21 04:55:41;;;;;;;19.02;12.23;;;1.20;72.90;;;;;;2048708;28;20062;-78
2022/03/21 04:56:42;;;;;;;17.92;11.60;;;1.10;72.50;;;;;;2058370;28;20820;-77
2022/03/21 04:57:43;;;;;;;19.58;12.55;;;1.20;72.60;;;;;;2066555;28;20188;-78
2022/03/21 04:58:43;;;;;;;19.90;12.70;;;1.20;73.20;;;;;;2057889;28;20041;-78
2022/03/21 04:59:44;;;;;;;19.52;12.85;;;1.20;74.50;;;;;;2057169;28;20121;-77
2022/03/21 05:00:45;;;;;;;18.27;12.20;;;1.20;74.80;;;;;;2054919;28;20034;-77
2022/03/21 05:01:45;;;;;;;18.85;12.38;;;1.20;74.70;;;;;;2055111;28;20536;-77
2022/03/21 05:02:46;;;;;;;18.58;12.15;;;1.20;75.20;;;;;;2054911;28;20050;-77
2022/03/21 05:03:48;;;;;;;20.63;12.32;;;1.20;75.60;;;;;;2047191;28;20642;-77
2022/03/21 05:04:48;;;;;;;19.42;12.27;;;1.20;76.20;;;;;;2055250;28;20034;-76
2022/03/21 05:05:49;;;;;;;20.27;12.80;;;1.20;75.00;;;;;;2055013;28;20422;-76
2022/03/21 05:06:50;;;;;;;19.83;12.02;;;1.20;74.70;;;;;;2047350;28;20047;-75
2022/03/21 05:07:52;;;;;;;19.50;12.98;;;1.20;74.80;;;;;;2056301;28;20023;-77
2022/03/21 05:08:53;;;;;;;23.42;14.45;;;1.20;74.60;;;;;;2065474;28;20113;-77
2022/03/21 05:09:54;;;;;;;22.63;14.00;;;1.20;73.70;;;;;;2065820;28;20030;-76
2022/03/21 05:10:56;;;;;;;25.35;14.85;;;1.30;74.50;;;;;;2058420;28;20042;-77
2022/03/21 05:11:57;;;;;;;21.35;13.82;;;1.30;74.60;;;;;;2050168;28;20073;-77
2022/03/21 05:12:59;;;;;;;22.27;13.35;;;1.30;74.20;;;;;;2055632;28;20045;-77
2022/03/21 05:13:59;;;;;;;19.10;13.02;;;1.30;73.60;;;;;;2055447;28;20038;-77
2022/03/21 05:15:00;;;;;;;20.38;13.13;;;1.30;73.10;;;;;;2055883;28;20035;-77
2022/03/21 05:16:01;;;;;;;19.13;13.00;;;1.30;73.30;;;;;;2055619;28;20041;-77
2022/03/21 05:17:02;;;;;;;20.05;12.88;;;1.40;73.00;;;;;;2055341;28;20033;-77
2022/03/21 05:18:04;;;;;;;19.65;13.00;;;1.40;72.60;;;;;;2047448;28;20030;-76
2022/03/21 05:19:06;;;;;;;21.85;14.05;;;1.40;72.10;;;;;;2047684;28;20051;-77